Time;durP1;ratioP1;P1;durP2;ratioP2;P2;SDS_P1;SDS_P2;PMS_P1;PMS_P2;Temp;Humidity;BMP_temperature;BMP_pressure;BME280_temperature;BME280_humidity;BME280_pressure;Samples;Min_cycle;Max_cycle;Signal;HPM_P1;HPM_P2
2022/01/27 00:05:04;;;;;;;23.50;13.47;;;;;;;3.62;65.69;100951.81;4950938;28;101775;-87
2022/01/27 00:07:32;;;;;;;22.87;12.60;;;;;;;3.62;65.29;100948.34;4953336;28;97607;-87
2022/01/27 00:12:33;;;;;;;23.50;13.23;;;;;;;3.64;65.32;100938.84;4951221;28;97076;-86
2022/01/27 00:15:09;;;;;;;23.50;12.67;;;;;;;3.66;65.55;100949.22;4947164;28;97651;-85
2022/01/27 00:17:40;;;;;;;25.23;12.53;;;;;;;3.61;65.84;100944.91;4903361;28;100817;-88
2022/01/27 00:20:06;;;;;;;22.40;13.23;;;;;;;3.70;65.56;100936.28;4919082;28;96879;-87
2022/01/27 00:22:42;;;;;;;22.90;13.40;;;;;;;3.56;65.36;100917.19;4952210;28;96719;-86
2022/01/27 00:25:10;;;;;;;22.13;12.90;;;;;;;3.58;66.05;100923.25;4935246;28;102100;-87
2022/01/27 00:27:35;;;;;;;25.57;14.47;;;;;;;3.65;65.95;100929.31;4917280;28;101191;-87
2022/01/27 00:30:03;;;;;;;23.93;13.17;;;;;;;3.71;65.60;100929.34;4950096;28;97199;-86
2022/01/27 00:32:30;;;;;;;24.73;14.77;;;;;;;3.45;65.44;100870.41;4946578;28;96964;-87
2022/01/27 00:34:57;;;;;;;21.53;12.63;;;;;;;3.64;65.49;100905.09;4947180;28;101761;-86
2022/01/27 00:37:22;;;;;;;24.80;13.13;;;;;;;3.66;65.29;100913.75;4943481;28;101081;-87
2022/01/27 00:39:48;;;;;;;25.57;13.80;;;;;;;3.61;65.58;100897.31;4943378;28;96699;-86
2022/01/27 00:42:13;;;;;;;25.37;14.70;;;;;;;3.71;65.44;100903.38;4919156;28;96940;-87
2022/01/27 00:44:39;;;;;;;22.53;13.40;;;;;;;3.70;65.54;100912.03;4932062;28;101100;-86
2022/01/27 00:47:05;;;;;;;26.07;14.00;;;;;;;3.71;65.59;100905.97;4960982;28;97587;-87
2022/01/27 00:49:31;;;;;;;24.57;14.20;;;;;;;3.55;65.60;100881.66;4915253;28;97107;-87
2022/01/27 00:51:57;;;;;;;27.37;13.30;;;;;;;3.72;65.72;100905.09;4945443;28;97146;-87
2022/01/27 00:54:27;;;;;;;22.60;13.07;;;;;;;3.67;65.58;100904.25;4945486;28;98546;-87
2022/01/27 01:02:08;;;;;;;23.83;12.40;;;;;;;3.51;66.38;100908.50;4951620;28;96632;-87
2022/01/27 01:04:38;;;;;;;25.53;13.67;;;;;;;3.51;66.22;100911.09;4950306;28;98371;-87
2022/01/27 01:07:05;;;;;;;26.47;14.00;;;;;;;3.35;66.40;100879.03;4933560;28;101328;-87
2022/01/27 01:15:21;;;;;;;25.87;13.73;;;;;;;3.60;65.88;100887.75;4954841;28;101369;-86
2022/01/27 01:20:27;;;;;;;27.00;14.57;;;;;;;3.54;65.72;100891.19;4949934;28;97003;-89
2022/01/27 01:33:42;;;;;;;26.13;13.00;;;;;;;3.55;65.70;100869.59;4962915;28;97113;-87
2022/01/27 01:36:34;;;;;;;23.80;13.70;;;;;;;3.57;65.93;100870.44;4918692;28;100372;-87
2022/01/27 01:38:59;;;;;;;20.98;11.93;;;;;;;3.47;65.87;100844.47;4938581;28;97942;-88
2022/01/27 01:41:25;;;;;;;23.40;12.33;;;;;;;3.61;65.36;100866.16;4934890;28;96860;-88
2022/01/27 01:43:50;;;;;;;25.60;13.97;;;;;;;3.38;65.47;100833.19;4931508;28;96971;-88
2022/01/27 01:46:16;;;;;;;24.60;13.10;;;;;;;3.56;65.40;100865.25;4962115;28;101375;-87
2022/01/27 01:48:41;;;;;;;22.80;12.33;;;;;;;3.49;65.68;100869.56;4963304;28;98409;-88
2022/01/27 01:51:07;;;;;;;26.50;13.77;;;;;;;3.51;65.58;100870.41;4948309;28;96915;-88
2022/01/27 01:53:32;;;;;;;22.03;11.50;;;;;;;3.57;65.69;100859.19;4924220;28;97255;-86
2022/01/27 01:55:58;;;;;;;25.00;12.83;;;;;;;3.47;65.55;100844.47;4959023;28;101662;-88
2022/01/27 01:58:24;;;;;;;24.63;12.27;;;;;;;3.55;66.02;100859.19;4928512;28;100940;-88
2022/01/27 02:00:49;;;;;;;23.80;12.80;;;;;;;3.55;65.44;100848.81;4933428;28;96762;-87
2022/01/27 02:03:15;;;;;;;24.20;13.20;;;;;;;3.53;65.58;100845.34;4949851;28;97139;-88
2022/01/27 02:05:47;;;;;;;23.93;11.53;;;;;;;3.56;65.90;100836.69;4932810;28;101509;-87
2022/01/27 02:19:10;;;;;;;24.20;12.03;;;;;;;3.61;65.80;100856.63;4952338;28;101647;-88
2022/01/27 02:22:03;;;;;;;23.77;12.17;;;;;;;3.57;65.84;100856.59;4941305;28;96741;-87
2022/01/27 02:24:31;;;;;;;26.60;12.57;;;;;;;3.69;66.00;100868.75;4959461;28;96941;-88
2022/01/27 02:26:57;;;;;;;21.80;12.20;;;;;;;3.62;65.65;100860.94;4940577;28;100467;-89
2022/01/27 02:29:24;;;;;;;20.23;11.70;;;;;;;3.69;65.54;100869.59;4944434;28;100775;-88
2022/01/27 02:31:52;;;;;;;23.10;12.33;;;;;;;3.72;65.41;100851.44;4952981;28;96851;-87
2022/01/27 02:34:18;;;;;;;22.70;11.43;;;;;;;3.61;65.82;100853.16;4973184;28;96958;-88
2022/01/27 02:36:44;;;;;;;21.10;11.20;;;;;;;3.74;65.51;100867.91;4975646;28;101656;-88
2022/01/27 02:39:11;;;;;;;19.23;10.77;;;;;;;3.71;65.57;100862.69;4951938;28;98373;-88
2022/01/27 02:41:45;;;;;;;19.57;9.90;;;;;;;3.58;65.53;100830.66;4952238;28;97122;-88
2022/01/27 02:44:21;;;;;;;20.83;11.00;;;;;;;3.70;65.71;100845.41;4960856;28;96763;-88
2022/01/27 02:46:50;;;;;;;19.50;10.77;;;;;;;3.63;65.80;100826.31;4961233;28;101141;-88
2022/01/27 02:49:15;;;;;;;18.10;11.30;;;;;;;3.53;65.74;100806.41;4943150;28;97524;-88
2022/01/27 02:51:41;;;;;;;18.87;10.23;;;;;;;3.61;65.70;100817.69;4935868;28;97218;-88
2022/01/27 02:54:06;;;;;;;21.17;11.00;;;;;;;3.70;66.21;100836.75;4965971;28;97223;-88
2022/01/27 02:56:33;;;;;;;20.60;11.67;;;;;;;3.68;66.17;100846.25;4933663;28;101678;-89
2022/01/27 02:58:59;;;;;;;18.07;10.00;;;;;;;3.66;66.34;100838.44;4951957;28;101470;-87
2022/01/27 03:01:24;;;;;;;19.63;10.50;;;;;;;3.68;65.63;100841.06;4968323;28;97410;-88
2022/01/27 03:03:50;;;;;;;19.10;9.50;;;;;;;3.58;65.92;100827.19;4950226;28;97074;-88
2022/01/27 03:06:15;;;;;;;17.90;9.90;;;;;;;3.59;66.02;100828.91;4954031;28;100489;-88
2022/01/27 03:08:41;;;;;;;18.90;9.90;;;;;;;3.67;66.33;100826.34;4943222;28;97820;-88
2022/01/27 03:11:12;;;;;;;18.10;9.27;;;;;;;3.68;65.85;100823.75;4968160;28;96917;-87
2022/01/27 03:13:38;;;;;;;17.37;9.50;;;;;;;3.66;66.30;100824.59;4929062;28;96897;-88
2022/01/27 03:16:06;;;;;;;17.53;10.00;;;;;;;3.62;66.00;100814.22;4947904;28;101559;-87
2022/01/27 03:18:32;;;;;;;20.80;9.87;;;;;;;3.65;65.96;100805.56;4956989;28;100922;-88
2022/01/27 03:20:58;;;;;;;16.07;8.80;;;;;;;3.67;65.84;100814.22;4967685;28;96591;-88
2022/01/27 03:23:23;;;;;;;19.57;9.40;;;;;;;3.69;65.92;100812.47;4935993;28;97025;-88
2022/01/27 03:25:49;;;;;;;17.83;9.47;;;;;;;3.65;65.66;100800.38;4951088;28;100810;-88
2022/01/27 03:28:15;;;;;;;16.90;10.00;;;;;;;3.69;65.89;100793.44;4935919;28;98104;-88
2022/01/27 03:30:41;;;;;;;16.87;8.60;;;;;;;3.70;65.93;100796.06;4919974;28;97184;-87
2022/01/27 03:33:07;;;;;;;17.70;9.57;;;;;;;3.67;65.95;100784.81;4968169;28;96948;-87
2022/01/27 03:35:32;;;;;;;16.50;8.93;;;;;;;3.70;65.94;100790.00;4952252;28;97473;-86
2022/01/27 03:37:58;;;;;;;17.30;9.03;;;;;;;3.70;66.20;100790.00;4935028;28;101756;-89
2022/01/27 03:40:23;;;;;;;18.93;9.70;;;;;;;3.70;65.88;100777.88;4963136;28;97042;-87
2022/01/27 03:43:03;;;;;;;15.47;8.77;;;;;;;3.70;66.03;100774.41;4940189;28;96936;-87
2022/01/27 03:45:29;;;;;;;17.00;8.93;;;;;;;3.70;66.17;100784.81;4967531;28;101638;-88
2022/01/27 03:47:55;;;;;;;18.37;8.90;;;;;;;3.72;65.90;100775.28;4967862;28;101268;-88
2022/01/27 03:50:21;;;;;;;15.93;8.90;;;;;;;3.76;65.60;100777.03;4952636;28;97013;-88
2022/01/27 03:52:47;;;;;;;16.30;8.53;;;;;;;3.73;65.63;100758.84;4964712;28;97221;-88
2022/01/27 03:55:12;;;;;;;13.17;8.20;;;;;;;3.72;65.70;100754.50;4963806;28;97413;-87
2022/01/27 03:57:38;;;;;;;16.17;8.83;;;;;;;3.75;65.69;100750.19;4942896;28;101290;-87
2022/01/27 04:00:06;;;;;;;15.53;8.37;;;;;;;3.72;65.94;100757.94;4919935;28;97182;-88
2022/01/27 04:02:49;;;;;;;15.83;8.63;;;;;;;3.71;65.46;100760.56;4949898;28;97483;-87
2022/01/27 04:05:15;;;;;;;15.13;8.40;;;;;;;3.71;65.77;100742.38;4962979;28;97543;-87
2022/01/27 04:07:42;;;;;;;17.00;8.97;;;;;;;3.69;65.75;100741.50;4949418;28;98365;-88
2022/01/27 04:10:08;;;;;;;14.97;7.93;;;;;;;3.69;65.96;100736.31;4950479;28;96765;-87
2022/01/27 04:12:34;;;;;;;15.23;8.30;;;;;;;3.77;65.82;100752.78;4951456;28;96871;-87
2022/01/27 04:14:59;;;;;;;14.83;8.07;;;;;;;3.77;65.82;100739.78;4952631;28;101860;-87
2022/01/27 04:17:25;;;;;;;14.43;8.40;;;;;;;3.82;65.77;100745.88;4934640;28;97587;-87
2022/01/27 04:19:50;;;;;;;14.80;7.47;;;;;;;3.79;65.93;100741.53;4935551;28;97612;-88
2022/01/27 04:22:16;;;;;;;14.63;7.90;;;;;;;3.85;65.43;100732.88;4940465;28;97601;-88
2022/01/27 04:24:41;;;;;;;16.07;9.20;;;;;;;3.79;65.81;100733.72;4960682;28;98261;-86
2022/01/27 04:27:16;;;;;;;15.57;8.13;;;;;;;3.88;65.63;100734.59;4934439;28;101740;-88
2022/01/27 04:29:42;;;;;;;14.83;8.10;;;;;;;3.80;66.14;100744.97;4975012;28;97166;-88
2022/01/27 04:32:09;;;;;;;13.60;7.03;;;;;;;3.79;65.74;100725.94;4966748;28;96832;-88
2022/01/27 04:34:37;;;;;;;12.17;6.30;;;;;;;3.88;65.79;100732.88;4919016;28;102012;-88
2022/01/27 04:37:04;;;;;;;13.23;7.77;;;;;;;3.88;65.70;100725.09;4918717;28;101878;-87
2022/01/27 04:39:40;;;;;;;13.13;7.33;;;;;;;3.83;65.57;100711.22;4951035;28;97697;-88
2022/01/27 04:42:14;;;;;;;12.77;7.03;;;;;;;3.79;65.62;100702.56;4925249;28;97323;-88
2022/01/27 04:44:43;;;;;;;11.77;6.37;;;;;;;3.76;65.41;100696.53;4950106;28;101147;-88
2022/01/27 04:47:16;;;;;;;12.30;6.90;;;;;;;3.83;65.67;100709.47;4974967;28;100550;-87
2022/01/27 04:49:42;;;;;;;11.60;6.77;;;;;;;3.83;65.60;100698.25;4973292;28;96827;-89
2022/01/27 04:52:08;;;;;;;11.67;6.13;;;;;;;3.83;65.51;100699.09;4919791;28;97460;-87
2022/01/27 04:54:50;;;;;;;14.30;6.87;;;;;;;3.85;65.28;100699.97;4946840;28;101638;-88
2022/01/27 04:57:16;;;;;;;11.07;6.10;;;;;;;3.82;65.27;100694.78;4938416;28;101267;-88
2022/01/27 04:59:43;;;;;;;10.47;6.33;;;;;;;3.85;65.52;100699.09;4963691;28;96754;-88
2022/01/27 05:02:39;;;;;;;12.60;6.73;;;;;;;3.76;64.98;100687.00;4947378;28;96685;-87
2022/01/27 05:04:55;;;;;;;10.50;6.27;;;;;;;3.81;64.84;100685.28;4946764;28;101960;-86
2022/01/27 05:07:20;;;;;;;9.00;5.60;;;;;;;3.85;64.94;100680.94;4923237;28;100511;-87
2022/01/27 05:09:55;;;;;;;9.40;5.87;;;;;;;3.82;64.82;100679.19;4932207;28;96990;-87
2022/01/27 05:12:46;;;;;;;8.97;5.30;;;;;;;3.90;64.69;100693.91;4939928;28;96995;-87
2022/01/27 05:15:07;;;;;;;9.83;6.20;;;;;;;3.92;64.91;100686.97;4937030;28;100051;-88
2022/01/27 05:17:32;;;;;;;11.30;6.50;;;;;;;3.96;64.45;100683.53;4964956;28;98020;-87
2022/01/27 05:19:58;;;;;;;11.87;6.20;;;;;;;3.93;64.74;100684.41;4943145;28;96764;-86
2022/01/27 05:22:24;;;;;;;12.57;6.83;;;;;;;4.03;64.68;100674.84;4961464;28;96747;-87
2022/01/27 05:24:49;;;;;;;10.27;5.80;;;;;;;3.78;64.92;100656.72;4945782;28;101252;-88
2022/01/27 05:27:15;;;;;;;10.10;6.87;;;;;;;3.90;65.10;100667.91;4916107;28;101470;-88
2022/01/27 05:29:40;;;;;;;10.53;6.10;;;;;;;3.88;64.71;100664.47;4916915;28;98084;-87
2022/01/27 05:32:06;;;;;;;15.07;7.40;;;;;;;3.90;65.13;100668.81;4949818;28;96996;-87
2022/01/27 05:34:32;;;;;;;10.50;5.93;;;;;;;3.92;64.76;100663.59;4930760;28;101702;-87
2022/01/27 05:36:58;;;;;;;9.93;6.10;;;;;;;3.83;64.61;100630.72;4965151;28;101208;-87
2022/01/27 05:39:23;;;;;;;10.80;5.87;;;;;;;3.99;64.93;100665.34;4941209;28;96988;-87
2022/01/27 05:41:49;;;;;;;9.83;6.23;;;;;;;3.93;64.89;100657.56;4960551;28;97989;-87
2022/01/27 05:44:14;;;;;;;12.70;6.50;;;;;;;3.87;65.13;100650.63;4948556;28;98543;-88
2022/01/27 05:46:40;;;;;;;10.97;6.63;;;;;;;3.83;64.99;100625.53;4932756;28;101503;-87
2022/01/27 05:49:05;;;;;;;9.00;5.50;;;;;;;3.91;64.96;100648.88;4949123;28;96699;-87
2022/01/27 05:51:31;;;;;;;9.87;5.80;;;;;;;3.91;65.26;100654.94;4964917;28;97999;-87
2022/01/27 05:53:56;;;;;;;10.30;6.23;;;;;;;3.74;64.74;100618.59;4949393;28;98052;-86
2022/01/27 05:56:22;;;;;;;12.93;7.07;;;;;;;3.94;64.76;100641.09;4932561;28;101596;-89
2022/01/27 05:58:48;;;;;;;13.23;6.90;;;;;;;4.03;64.83;100639.31;4926017;28;96877;-87
2022/01/27 06:01:13;;;;;;;13.63;6.67;;;;;;;3.76;64.43;100590.91;4947294;28;96877;-87
2022/01/27 06:03:39;;;;;;;12.87;6.60;;;;;;;3.92;64.34;100643.69;4924822;28;101930;-87
2022/01/27 06:06:05;;;;;;;15.07;6.70;;;;;;;3.85;64.14;100626.38;4952374;28;101350;-87
2022/01/27 06:08:30;;;;;;;12.63;6.40;;;;;;;3.96;63.78;100644.56;4952081;28;96841;-87
2022/01/27 06:10:56;;;;;;;10.03;5.93;;;;;;;3.89;63.71;100640.22;4953544;28;96934;-87
2022/01/27 06:13:22;;;;;;;11.37;6.00;;;;;;;4.05;63.39;100649.72;4959150;28;101239;-87
2022/01/27 06:15:48;;;;;;;12.10;6.73;;;;;;;3.92;63.02;100643.69;4931000;28;100613;-87
2022/01/27 06:18:13;;;;;;;10.90;6.40;;;;;;;3.74;63.48;100613.41;4935681;28;97328;-87
2022/01/27 06:20:42;;;;;;;12.37;6.20;;;;;;;3.99;63.43;100657.53;4952918;28;97232;-88
2022/01/27 06:23:08;;;;;;;13.17;6.37;;;;;;;3.92;63.45;100659.25;4955974;28;101215;-87
2022/01/27 06:25:33;;;;;;;14.47;7.33;;;;;;;3.89;63.64;100655.81;4928520;28;100168;-88
2022/01/27 06:27:59;;;;;;;10.50;6.13;;;;;;;3.83;63.37;100636.75;4983779;28;96653;-88
2022/01/27 06:30:25;;;;;;;10.03;5.67;;;;;;;3.97;62.85;100639.34;4951059;28;96893;-88
2022/01/27 06:32:50;;;;;;;9.57;5.57;;;;;;;3.92;62.92;100635.03;4954578;28;100185;-89
2022/01/27 06:35:16;;;;;;;10.90;5.60;;;;;;;3.93;62.80;100635.03;4924204;28;101217;-88
2022/01/27 06:37:44;;;;;;;10.27;5.83;;;;;;;3.95;62.76;100640.22;4946970;28;97120;-87
2022/01/27 06:40:10;;;;;;;9.40;5.40;;;;;;;3.93;62.83;100624.66;4932339;28;96923;-88
2022/01/27 06:42:36;;;;;;;8.57;5.10;;;;;;;3.90;62.78;100613.38;4949772;28;101441;-88
2022/01/27 06:45:04;;;;;;;13.73;5.83;;;;;;;3.94;63.02;100630.69;4963865;28;98127;-88
2022/01/27 06:47:29;;;;;;;8.83;5.20;;;;;;;3.95;62.88;100640.22;4968400;28;96751;-88
2022/01/27 06:49:55;;;;;;;12.67;6.63;;;;;;;3.94;62.94;100635.91;4936176;28;96823;-86
2022/01/27 06:52:23;;;;;;;11.77;6.40;;;;;;;3.90;62.75;100623.75;4931746;28;100895;-88
2022/01/27 06:54:50;;;;;;;15.23;6.93;;;;;;;4.00;62.92;100633.28;4931802;28;101627;-86
2022/01/27 06:57:15;;;;;;;11.37;6.30;;;;;;;4.00;63.06;100634.16;4956295;28;96785;-88
2022/01/27 06:59:41;;;;;;;11.30;6.90;;;;;;;3.93;62.66;100616.84;4936123;28;97350;-87
2022/01/27 07:02:07;;;;;;;14.33;7.50;;;;;;;3.92;62.83;100629.84;4958845;28;100867;-88
2022/01/27 07:04:32;;;;;;;12.80;6.73;;;;;;;3.89;63.35;100616.84;4971230;28;100406;-89
2022/01/27 07:06:58;;;;;;;10.77;7.00;;;;;;;3.95;63.27;100625.50;4962216;28;96667;-87
2022/01/27 07:09:23;;;;;;;10.87;6.60;;;;;;;3.90;62.88;100614.28;4969649;28;97466;-87
2022/01/27 07:11:49;;;;;;;10.57;6.67;;;;;;;4.02;63.19;100618.56;4943100;28;101499;-87
2022/01/27 07:14:14;;;;;;;14.83;7.27;;;;;;;3.98;62.86;100598.66;4946835;28;101334;-88
2022/01/27 07:16:42;;;;;;;11.80;6.73;;;;;;;3.99;62.72;100610.78;4973099;28;96814;-87
2022/01/27 07:19:08;;;;;;;10.73;6.87;;;;;;;3.91;62.82;100590.00;4940975;28;98307;-88
2022/01/27 07:21:33;;;;;;;11.97;7.43;;;;;;;3.96;62.80;100595.22;4953185;28;97516;-88
2022/01/27 07:23:59;;;;;;;13.00;6.80;;;;;;;3.94;62.98;100587.41;4961561;28;98344;-88
2022/01/27 07:26:25;;;;;;;11.93;7.60;;;;;;;3.92;62.71;100577.88;4928318;28;97262;-88
2022/01/27 07:28:53;;;;;;;16.47;7.37;;;;;;;3.95;63.18;100573.53;4965165;28;97363;-88
2022/01/27 07:31:18;;;;;;;14.57;7.53;;;;;;;4.01;62.76;100564.88;4964516;28;98566;-86
2022/01/27 07:33:44;;;;;;;13.87;7.50;;;;;;;3.96;62.90;100562.31;4933475;28;100577;-88
2022/01/27 07:36:10;;;;;;;12.33;7.50;;;;;;;4.01;62.52;100580.44;4960477;28;96988;-88
2022/01/27 07:38:36;;;;;;;13.40;8.17;;;;;;;4.00;63.21;100574.41;4924965;28;96945;-88
2022/01/27 07:41:01;;;;;;;15.80;8.80;;;;;;;4.02;63.16;100577.88;4965403;28;100481;-88
2022/01/27 07:43:27;;;;;;;18.40;9.73;;;;;;;3.74;62.97;100530.31;4950168;28;97970;-88
2022/01/27 07:45:52;;;;;;;20.70;10.50;;;;;;;4.01;63.14;100575.25;4963852;28;96935;-88
2022/01/27 07:48:18;;;;;;;15.60;9.37;;;;;;;3.98;62.79;100546.69;4937212;28;97016;-87
2022/01/27 07:50:44;;;;;;;16.53;9.40;;;;;;;4.03;62.88;100555.34;4967427;28;97938;-88
2022/01/27 07:53:10;;;;;;;16.80;9.97;;;;;;;4.05;62.87;100559.66;4948594;28;98221;-88
2022/01/27 07:55:35;;;;;;;17.70;10.10;;;;;;;4.09;62.66;100542.31;4970007;28;96663;-87
2022/01/27 07:58:01;;;;;;;17.27;9.93;;;;;;;3.78;63.08;100500.91;4923067;28;97085;-88
2022/01/27 08:00:27;;;;;;;17.13;9.20;;;;;;;3.96;62.79;100522.47;4950357;28;100912;-88
2022/01/27 08:02:52;;;;;;;17.03;9.70;;;;;;;4.04;62.34;100537.16;4956162;28;98180;-88
2022/01/27 08:05:20;;;;;;;17.40;9.90;;;;;;;4.05;62.61;100543.22;4946428;28;97236;-88
2022/01/27 08:07:46;;;;;;;20.73;9.73;;;;;;;4.06;62.77;100540.59;4967828;28;97071;-87
2022/01/27 08:10:12;;;;;;;18.77;9.97;;;;;;;4.06;62.62;100552.72;4919468;28;101631;-87
2022/01/27 08:12:42;;;;;;;20.20;10.30;;;;;;;4.06;62.78;100551.00;4974281;28;101220;-88
2022/01/27 08:15:09;;;;;;;18.67;10.63;;;;;;;4.11;62.56;100558.78;4961730;28;98013;-88
2022/01/27 08:17:34;;;;;;;17.07;10.27;;;;;;;4.05;62.25;100517.25;4962144;28;97392;-88
2022/01/27 08:20:00;;;;;;;20.37;11.53;;;;;;;4.12;62.02;100549.25;4966754;28;98398;-86
2022/01/27 08:22:25;;;;;;;23.13;11.60;;;;;;;4.05;62.03;100541.47;4945395;28;100464;-88
2022/01/27 08:24:51;;;;;;;26.90;14.00;;;;;;;4.03;61.69;100522.44;4960887;28;97124;-88
2022/01/27 08:27:20;;;;;;;26.33;12.53;;;;;;;4.10;62.14;100536.25;4943721;28;97318;-88
2022/01/27 08:29:52;;;;;;;37.97;15.73;;;;;;;4.00;61.95;100513.78;4949395;28;100573;-88
2022/01/27 08:32:28;;;;;;;26.70;12.77;;;;;;;3.93;62.03;100504.31;4941837;28;97824;-89
2022/01/27 08:34:54;;;;;;;24.10;11.30;;;;;;;4.12;62.00;100518.06;4944705;28;97227;-89
2022/01/27 08:37:21;;;;;;;25.33;13.10;;;;;;;4.09;61.80;100513.75;4977102;28;96891;-89
2022/01/27 08:39:47;;;;;;;24.87;11.47;;;;;;;4.08;61.96;100510.28;4947021;28;101323;-90
2022/01/27 08:42:13;;;;;;;20.67;11.07;;;;;;;3.96;61.69;100486.97;4964389;28;97764;-89
2022/01/27 08:44:39;;;;;;;20.63;11.43;;;;;;;4.03;61.66;100506.84;4951038;28;97705;-89
2022/01/27 08:47:05;;;;;;;23.53;11.67;;;;;;;3.82;61.46;100462.78;4961965;28;97718;-89
2022/01/27 08:49:31;;;;;;;20.43;12.13;;;;;;;3.96;61.77;100483.50;4971222;28;98261;-89
2022/01/27 08:51:57;;;;;;;26.13;13.23;;;;;;;4.05;61.57;100478.28;4926674;28;101647;-89
2022/01/27 08:54:23;;;;;;;25.43;11.47;;;;;;;4.07;61.26;100474.78;4943750;28;98474;-88
2022/01/27 08:56:49;;;;;;;23.17;12.77;;;;;;;4.11;61.06;100474.78;4964085;28;97782;-89
2022/01/27 08:59:16;;;;;;;23.83;11.77;;;;;;;4.08;61.54;100475.66;4964628;28;101470;-87
2022/01/27 09:01:42;;;;;;;21.97;12.07;;;;;;;3.99;61.15;100448.00;4923827;28;101329;-87
2022/01/27 09:04:08;;;;;;;22.57;12.37;;;;;;;4.07;61.14;100447.94;4949508;28;96762;-93
2022/01/27 09:06:34;;;;;;;23.67;12.97;;;;;;;4.18;61.02;100466.94;4954564;28;97301;-94
2022/01/27 09:09:01;;;;;;;21.57;11.27;;;;;;;4.24;60.62;100460.84;4961191;28;101905;-93
2022/01/27 09:11:29;;;;;;;24.97;13.03;;;;;;;4.19;60.97;100454.78;4952061;28;101343;-90
2022/01/27 09:13:55;;;;;;;26.63;12.33;;;;;;;4.21;60.60;100459.13;4962334;28;97038;-93
2022/01/27 09:16:23;;;;;;;24.53;12.80;;;;;;;4.17;60.85;100438.38;4964106;28;97703;-85
2022/01/27 09:18:49;;;;;;;24.47;13.63;;;;;;;4.38;60.64;100466.81;4980345;28;97725;-86
2022/01/27 09:21:22;;;;;;;30.10;13.60;;;;;;;4.48;60.37;100450.28;4963453;28;101279;-85
2022/01/27 09:23:48;;;;;;;24.77;12.67;;;;;;;4.39;60.34;100426.94;4964170;28;97214;-93
2022/01/27 09:26:38;;;;;;;25.87;12.63;;;;;;;4.48;60.25;100433.81;4941253;28;97267;-92
2022/01/27 09:28:59;;;;;;;23.87;12.47;;;;;;;4.49;60.10;100443.34;4957704;28;101103;-92
2022/01/27 09:31:25;;;;;;;27.63;12.87;;;;;;;4.41;60.20;100437.34;4933430;28;98264;-91
2022/01/27 09:33:50;;;;;;;30.83;13.77;;;;;;;4.30;60.53;100408.81;4980045;28;96881;-89
2022/01/27 09:36:17;;;;;;;23.50;11.83;;;;;;;4.48;60.13;100419.09;4947962;28;97062;-92
2022/01/27 09:38:43;;;;;;;25.77;12.07;;;;;;;4.49;60.24;100428.63;4925068;28;101909;-86
2022/01/27 09:41:11;;;;;;;27.43;14.00;;;;;;;4.50;60.31;100426.88;4934550;28;98090;-89
2022/01/27 09:43:37;;;;;;;31.80;13.53;;;;;;;4.52;60.00;100428.59;4952546;28;97203;-87
2022/01/27 09:46:06;;;;;;;28.37;12.83;;;;;;;4.47;60.16;100406.97;4933589;28;97401;-87
2022/01/27 09:48:39;;;;;;;22.93;12.03;;;;;;;4.54;59.99;100408.66;4949217;28;98461;-87
2022/01/27 09:51:25;;;;;;;28.70;13.03;;;;;;;4.54;60.42;100400.84;4948812;28;100894;-89
2022/01/27 09:53:52;;;;;;;24.80;12.93;;;;;;;4.58;60.56;100386.09;4929630;28;97032;-87
2022/01/27 09:56:19;;;;;;;25.03;13.30;;;;;;;4.29;60.36;100339.53;4944292;28;97067;-88
2022/01/27 09:58:44;;;;;;;28.10;12.63;;;;;;;4.38;60.23;100355.03;4928481;28;98379;-86
2022/01/27 10:01:10;;;;;;;23.00;11.57;;;;;;;4.54;60.23;100359.25;4961174;28;98068;-85
2022/01/27 10:04:05;;;;;;;23.77;12.77;;;;;;;4.55;60.21;100378.31;4932625;28;97261;-86
2022/01/27 10:06:33;;;;;;;22.03;12.10;;;;;;;4.62;60.75;100385.16;4947532;28;97133;-86
2022/01/27 10:09:22;;;;;;;24.40;12.07;;;;;;;4.63;60.08;100376.50;4926887;28;100815;-87
2022/01/27 10:11:49;;;;;;;29.87;13.30;;;;;;;4.65;60.53;100376.47;4965363;28;98310;-87
2022/01/27 10:14:18;;;;;;;23.67;13.63;;;;;;;4.54;60.28;100351.44;4931737;28;96896;-87
2022/01/27 10:16:45;;;;;;;22.07;12.30;;;;;;;4.69;60.49;100376.44;4945261;28;96921;-86
2022/01/27 10:19:12;;;;;;;24.93;12.50;;;;;;;4.69;60.18;100362.59;4961013;28;100671;-88
2022/01/27 10:21:38;;;;;;;24.03;12.67;;;;;;;4.73;60.10;100362.53;4922331;28;100061;-82
2022/01/27 10:24:14;;;;;;;31.83;14.47;;;;;;;4.71;60.10;100361.72;4944504;28;96712;-86
2022/01/27 10:26:44;;;;;;;23.87;13.50;;;;;;;4.70;60.19;100352.16;4960923;28;97976;-86
2022/01/27 10:29:17;;;;;;;24.90;13.20;;;;;;;4.71;60.33;100350.41;4964071;28;100697;-87
2022/01/27 10:31:42;;;;;;;30.03;13.73;;;;;;;4.60;60.42;100324.53;4980602;28;98110;-88
2022/01/27 10:34:10;;;;;;;26.67;13.50;;;;;;;4.69;60.47;100340.03;4944732;28;96959;-83
2022/01/27 10:36:41;;;;;;;24.40;13.97;;;;;;;4.57;60.24;100314.16;4953923;28;97239;-86
2022/01/27 10:39:22;;;;;;;28.10;13.00;;;;;;;4.75;60.53;100328.72;4939736;28;97662;-85
2022/01/27 10:42:07;;;;;;;24.07;13.27;;;;;;;4.76;60.21;100323.50;4951318;28;98137;-90
2022/01/27 10:44:42;;;;;;;25.73;13.77;;;;;;;4.78;60.49;100326.09;4975994;28;97291;-83
2022/01/27 10:47:17;;;;;;;27.10;13.83;;;;;;;4.82;60.86;100311.31;4915777;28;96843;-89
2022/01/27 10:49:58;;;;;;;27.07;14.40;;;;;;;4.71;60.77;100309.69;4933507;28;101873;-88
2022/01/27 10:52:51;;;;;;;24.93;13.40;;;;;;;4.82;60.94;100308.69;4940914;28;97905;-88
2022/01/27 10:55:17;;;;;;;22.83;12.70;;;;;;;4.77;60.87;100298.38;4939626;28;97220;-87
2022/01/27 10:57:49;;;;;;;25.03;12.77;;;;;;;4.61;61.38;100278.59;4960382;28;96798;-81
2022/01/27 11:00:21;;;;;;;26.67;13.70;;;;;;;4.67;61.83;100292.38;4946720;28;102038;-81
2022/01/27 11:02:51;;;;;;;21.97;11.87;;;;;;;4.72;61.90;100280.19;4954049;28;101435;-81
2022/01/27 11:05:29;;;;;;;24.37;12.57;;;;;;;4.71;62.25;100275.88;4945074;28;97727;-80
2022/01/27 11:07:56;;;;;;;22.13;12.60;;;;;;;4.68;62.15;100262.91;4928434;28;97051;-81
2022/01/27 11:10:22;;;;;;;24.10;13.37;;;;;;;4.70;62.79;100276.75;4965567;28;102210;-85
2022/01/27 11:12:50;;;;;;;25.17;12.55;;;;;;;4.66;62.76;100264.66;4894646;28;1256030;-80
2022/01/27 11:15:18;;;;;;;25.53;13.90;;;;;;;4.58;63.45;100257.81;4980485;28;96735;-80
2022/01/27 11:17:46;;;;;;;20.70;12.67;;;;;;;4.66;64.62;100274.22;4961646;28;97344;-80
2022/01/27 11:28:04;;;;;;;23.43;13.83;;;;;;;4.47;66.66;100242.31;4938910;28;97174;-81
2022/01/27 11:30:57;;;;;;;24.33;13.33;;;;;;;4.54;66.91;100251.81;4937445;28;97735;-79
2022/01/27 11:33:31;;;;;;;26.40;14.43;;;;;;;4.48;66.78;100242.31;4948640;28;99638;-82
2022/01/27 11:36:15;;;;;;;28.27;14.30;;;;;;;4.66;66.77;100237.81;4945628;28;97561;-80
2022/01/27 11:38:43;;;;;;;34.77;15.53;;;;;;;4.65;66.78;100229.13;4945952;28;96854;-83
2022/01/27 11:41:36;;;;;;;28.57;14.47;;;;;;;4.59;67.26;100229.19;4955580;28;101743;-83
2022/01/27 11:44:32;;;;;;;31.90;15.77;;;;;;;4.65;67.29;100218.72;4923431;28;97860;-88
2022/01/27 11:47:07;;;;;;;29.57;14.97;;;;;;;4.51;67.03;100216.31;4943778;28;96791;-84
2022/01/27 11:50:07;;;;;;;26.10;14.10;;;;;;;4.55;67.57;100214.53;4949012;28;96905;-82
2022/01/27 11:52:37;;;;;;;32.40;15.83;;;;;;;4.37;67.25;100186.13;4955445;28;97998;-83
2022/01/27 11:55:24;;;;;;;29.20;15.63;;;;;;;4.47;67.82;100213.72;4952209;28;97473;-83
2022/01/27 11:57:57;;;;;;;28.70;15.80;;;;;;;4.61;67.88;100209.25;4954887;28;96741;-84
2022/01/27 12:00:28;;;;;;;32.63;15.77;;;;;;;4.47;67.75;100172.16;4964832;28;96837;-82
2022/01/27 12:02:56;;;;;;;27.83;15.60;;;;;;;4.70;67.80;100209.13;4935445;28;98697;-84
2022/01/27 12:05:26;;;;;;;30.93;16.37;;;;;;;4.68;67.43;100203.13;4951747;28;101459;-84
2022/01/27 12:08:14;;;;;;;29.50;15.80;;;;;;;4.67;68.21;100196.16;4950170;28;97778;-84
2022/01/27 12:11:01;;;;;;;31.07;16.83;;;;;;;4.61;68.39;100192.78;4967948;28;97039;-85
2022/01/27 12:13:36;;;;;;;28.77;15.77;;;;;;;4.58;68.65;100201.47;4943801;28;97910;-84
2022/01/27 12:19:00;;;;;;;31.40;16.90;;;;;;;4.66;68.87;100202.25;4965311;28;97257;-84